sensor_id;sensor_type;location;lat;lon;timestamp;pressure;altitude;pressure_sealevel;temperature;humidity
73024;BME280;61199;47.526;8.538;2023-05-07T00:02:16;96307.22;;;19.12;57.75
73024;BME280;61199;47.526;8.538;2023-05-07T00:04:42;96313.59;;;18.97;58.30
73024;BME280;61199;47.526;8.538;2023-05-07T00:07:08;96308.28;;;18.97;58.04
73024;BME280;61199;47.526;8.538;2023-05-07T00:09:35;96307.81;;;19.08;57.96
73024;BME280;61199;47.526;8.538;2023-05-07T00:12:02;96303.47;;;19.07;58.01
73024;BME280;61199;47.526;8.538;2023-05-07T00:14:29;96310.75;;;18.98;58.09
73024;BME280;61199;47.526;8.538;2023-05-07T00:16:55;96301.31;;;18.96;58.20
73024;BME280;61199;47.526;8.538;2023-05-07T00:19:22;96308.03;;;18.92;58.57
73024;BME280;61199;47.526;8.538;2023-05-07T00:21:48;96307.59;;;18.88;58.45
73024;BME280;61199;47.526;8.538;2023-05-07T00:24:14;96309.28;;;18.96;58.54
73024;BME280;61199;47.526;8.538;2023-05-07T00:26:41;96308.38;;;19.03;58.43
73024;BME280;61199;47.526;8.538;2023-05-07T00:29:07;96315.22;;;18.98;58.86
73024;BME280;61199;47.526;8.538;2023-05-07T00:31:33;96313.97;;;18.94;59.04
73024;BME280;61199;47.526;8.538;2023-05-07T00:34:00;96307.81;;;18.93;59.22
73024;BME280;61199;47.526;8.538;2023-05-07T00:36:26;96301.25;;;18.89;58.97
73024;BME280;61199;47.526;8.538;2023-05-07T00:38:53;96298.53;;;18.83;59.56
73024;BME280;61199;47.526;8.538;2023-05-07T00:41:20;96297.00;;;18.74;59.56
73024;BME280;61199;47.526;8.538;2023-05-07T00:43:47;96304.34;;;18.72;59.65
73024;BME280;61199;47.526;8.538;2023-05-07T00:46:14;96306.72;;;18.67;59.93
73024;BME280;61199;47.526;8.538;2023-05-07T00:48:41;96303.44;;;18.65;60.16
73024;BME280;61199;47.526;8.538;2023-05-07T00:51:09;96306.63;;;18.75;59.98
73024;BME280;61199;47.526;8.538;2023-05-07T00:53:37;96300.75;;;18.44;60.56
73024;BME280;61199;47.526;8.538;2023-05-07T00:56:04;96302.66;;;18.35;61.11
73024;BME280;61199;47.526;8.538;2023-05-07T00:58:33;96295.63;;;18.28;61.29
73024;BME280;61199;47.526;8.538;2023-05-07T01:00:59;96296.72;;;18.48;60.86
73024;BME280;61199;47.526;8.538;2023-05-07T01:03:26;96295.69;;;18.49;60.79
73024;BME280;61199;47.526;8.538;2023-05-07T01:05:54;96302.81;;;18.63;60.14
73024;BME280;61199;47.526;8.538;2023-05-07T01:08:22;96305.47;;;18.63;60.14
73024;BME280;61199;47.526;8.538;2023-05-07T01:10:48;96302.91;;;18.55;60.36
73024;BME280;61199;47.526;8.538;2023-05-07T01:13:15;96298.63;;;18.54;60.24
73024;BME280;61199;47.526;8.538;2023-05-07T01:15:43;96303.59;;;18.42;60.58
73024;BME280;61199;47.526;8.538;2023-05-07T01:18:09;96300.38;;;18.47;60.71
73024;BME280;61199;47.526;8.538;2023-05-07T01:20:36;96291.78;;;18.45;60.27
73024;BME280;61199;47.526;8.538;2023-05-07T01:23:03;96292.97;;;18.42;60.72
73024;BME280;61199;47.526;8.538;2023-05-07T01:25:29;96286.81;;;18.42;60.62
73024;BME280;61199;47.526;8.538;2023-05-07T01:27:57;96286.31;;;18.32;61.23
73024;BME280;61199;47.526;8.538;2023-05-07T01:30:26;96293.78;;;18.14;61.48
73024;BME280;61199;47.526;8.538;2023-05-07T01:33:09;96292.78;;;18.15;61.23
73024;BME280;61199;47.526;8.538;2023-05-07T01:35:48;96294.31;;;18.24;60.45
73024;BME280;61199;47.526;8.538;2023-05-07T01:38:16;96291.59;;;18.32;60.94
73024;BME280;61199;47.526;8.538;2023-05-07T01:40:42;96292.59;;;18.16;60.81
73024;BME280;61199;47.526;8.538;2023-05-07T01:43:10;96292.13;;;18.13;61.11
73024;BME280;61199;47.526;8.538;2023-05-07T01:45:37;96291.41;;;18.19;60.63
73024;BME280;61199;47.526;8.538;2023-05-07T01:48:04;96287.75;;;18.20;61.07
73024;BME280;61199;47.526;8.538;2023-05-07T01:50:31;96282.53;;;18.12;60.95
73024;BME280;61199;47.526;8.538;2023-05-07T01:52:58;96282.53;;;18.12;60.46
73024;BME280;61199;47.526;8.538;2023-05-07T01:55:24;96284.34;;;18.11;60.35
73024;BME280;61199;47.526;8.538;2023-05-07T01:57:51;96284.47;;;18.18;60.44
73024;BME280;61199;47.526;8.538;2023-05-07T02:00:17;96283.19;;;18.14;59.85
73024;BME280;61199;47.526;8.538;2023-05-07T02:02:45;96288.47;;;18.14;59.98
73024;BME280;61199;47.526;8.538;2023-05-07T02:05:11;96299.09;;;18.14;60.68
73024;BME280;61199;47.526;8.538;2023-05-07T02:07:38;96306.78;;;18.09;60.64
73024;BME280;61199;47.526;8.538;2023-05-07T02:10:04;96296.53;;;18.06;60.20
73024;BME280;61199;47.526;8.538;2023-05-07T02:12:31;96292.06;;;18.06;60.74
73024;BME280;61199;47.526;8.538;2023-05-07T02:14:57;96292.22;;;18.05;61.10
73024;BME280;61199;47.526;8.538;2023-05-07T02:17:24;96298.38;;;18.05;60.43
73024;BME280;61199;47.526;8.538;2023-05-07T02:19:50;96302.84;;;18.05;60.46
73024;BME280;61199;47.526;8.538;2023-05-07T02:22:16;96300.00;;;17.92;61.00
73024;BME280;61199;47.526;8.538;2023-05-07T02:24:43;96304.41;;;17.85;60.24
73024;BME280;61199;47.526;8.538;2023-05-07T02:27:09;96310.53;;;17.71;60.82
73024;BME280;61199;47.526;8.538;2023-05-07T02:29:36;96314.06;;;17.78;60.53
73024;BME280;61199;47.526;8.538;2023-05-07T02:32:02;96316.78;;;17.70;60.39
73024;BME280;61199;47.526;8.538;2023-05-07T02:34:28;96315.16;;;17.69;60.88
73024;BME280;61199;47.526;8.538;2023-05-07T02:36:55;96325.75;;;17.69;61.24
73024;BME280;61199;47.526;8.538;2023-05-07T02:39:21;96326.28;;;17.65;61.93
73024;BME280;61199;47.526;8.538;2023-05-07T02:41:48;96321.47;;;17.68;61.47
73024;BME280;61199;47.526;8.538;2023-05-07T02:44:14;96319.53;;;17.62;61.82
73024;BME280;61199;47.526;8.538;2023-05-07T02:46:40;96324.63;;;17.49;61.66
73024;BME280;61199;47.526;8.538;2023-05-07T02:49:07;96320.75;;;17.37;61.45
73024;BME280;61199;47.526;8.538;2023-05-07T02:51:33;96319.59;;;17.40;61.84
73024;BME280;61199;47.526;8.538;2023-05-07T02:53:59;96326.72;;;17.31;62.02
73024;BME280;61199;47.526;8.538;2023-05-07T02:56:27;96328.03;;;17.35;62.13
73024;BME280;61199;47.526;8.538;2023-05-07T02:58:53;96319.59;;;17.40;61.26
73024;BME280;61199;47.526;8.538;2023-05-07T03:01:19;96322.97;;;17.48;62.07
73024;BME280;61199;47.526;8.538;2023-05-07T03:03:47;96318.09;;;17.37;61.96
73024;BME280;61199;47.526;8.538;2023-05-07T03:06:13;96320.69;;;17.45;62.15
73024;BME280;61199;47.526;8.538;2023-05-07T03:08:39;96322.75;;;17.35;61.82
73024;BME280;61199;47.526;8.538;2023-05-07T03:11:06;96325.44;;;17.27;62.27
73024;BME280;61199;47.526;8.538;2023-05-07T03:13:33;96317.44;;;17.35;61.54
73024;BME280;61199;47.526;8.538;2023-05-07T03:15:59;96322.06;;;17.33;62.20
73024;BME280;61199;47.526;8.538;2023-05-07T03:18:25;96312.31;;;17.34;62.29
73024;BME280;61199;47.526;8.538;2023-05-07T03:20:52;96309.50;;;17.35;61.76
73024;BME280;61199;47.526;8.538;2023-05-07T03:23:18;96310.16;;;17.37;61.64
73024;BME280;61199;47.526;8.538;2023-05-07T03:25:45;96302.69;;;17.18;62.69
73024;BME280;61199;47.526;8.538;2023-05-07T03:28:11;96296.75;;;17.16;62.00
73024;BME280;61199;47.526;8.538;2023-05-07T03:30:37;96301.84;;;17.18;62.75
73024;BME280;61199;47.526;8.538;2023-05-07T03:33:04;96306.97;;;17.19;62.27
73024;BME280;61199;47.526;8.538;2023-05-07T03:35:30;96305.34;;;17.18;62.48
73024;BME280;61199;47.526;8.538;2023-05-07T03:37:57;96315.44;;;17.15;62.66
73024;BME280;61199;47.526;8.538;2023-05-07T03:40:23;96314.66;;;17.06;62.98
73024;BME280;61199;47.526;8.538;2023-05-07T03:42:49;96327.31;;;16.96;62.68
73024;BME280;61199;47.526;8.538;2023-05-07T03:45:16;96324.72;;;16.88;63.46
73024;BME280;61199;47.526;8.538;2023-05-07T03:47:42;96332.00;;;16.86;63.37
73024;BME280;61199;47.526;8.538;2023-05-07T03:50:09;96328.09;;;16.82;63.67
73024;BME280;61199;47.526;8.538;2023-05-07T03:52:37;96332.25;;;16.77;63.87
73024;BME280;61199;47.526;8.538;2023-05-07T03:55:03;96329.19;;;16.65;64.21
73024;BME280;61199;47.526;8.538;2023-05-07T03:57:30;96327.16;;;16.67;63.87
73024;BME280;61199;47.526;8.538;2023-05-07T03:59:56;96331.47;;;16.68;64.20
73024;BME280;61199;47.526;8.538;2023-05-07T04:02:22;96338.75;;;16.66;64.33
73024;BME280;61199;47.526;8.538;2023-05-07T04:04:49;96337.41;;;16.70;63.51
73024;BME280;61199;47.526;8.538;2023-05-07T04:07:16;96337.88;;;16.74;63.81
73024;BME280;61199;47.526;8.538;2023-05-07T04:09:42;96343.34;;;16.72;63.84
73024;BME280;61199;47.526;8.538;2023-05-07T04:12:08;96337.09;;;16.65;63.89
73024;BME280;61199;47.526;8.538;2023-05-07T04:14:35;96340.19;;;16.77;63.47
73024;BME280;61199;47.526;8.538;2023-05-07T04:17:01;96338.34;;;16.77;63.43
73024;BME280;61199;47.526;8.538;2023-05-07T04:19:28;96340.03;;;16.70;63.74
73024;BME280;61199;47.526;8.538;2023-05-07T04:21:55;96344.47;;;16.78;63.48
73024;BME280;61199;47.526;8.538;2023-05-07T04:24:21;96347.13;;;16.78;63.60
73024;BME280;61199;47.526;8.538;2023-05-07T04:26:48;96346.59;;;16.82;62.82
73024;BME280;61199;47.526;8.538;2023-05-07T04:29:14;96344.66;;;16.76;63.19
73024;BME280;61199;47.526;8.538;2023-05-07T04:31:40;96351.06;;;16.82;62.98
73024;BME280;61199;47.526;8.538;2023-05-07T04:34:07;96356.53;;;16.80;63.62
73024;BME280;61199;47.526;8.538;2023-05-07T04:36:33;96356.19;;;16.83;62.97
73024;BME280;61199;47.526;8.538;2023-05-07T04:39:00;96354.81;;;16.87;63.26
73024;BME280;61199;47.526;8.538;2023-05-07T04:41:26;96358.84;;;16.83;63.40
73024;BME280;61199;47.526;8.538;2023-05-07T04:43:53;96353.19;;;16.86;63.36
73024;BME280;61199;47.526;8.538;2023-05-07T04:46:20;96351.19;;;16.88;63.45
73024;BME280;61199;47.526;8.538;2023-05-07T04:48:46;96352.84;;;16.89;63.67
73024;BME280;61199;47.526;8.538;2023-05-07T04:51:12;96357.75;;;17.00;63.48
73024;BME280;61199;47.526;8.538;2023-05-07T04:53:39;96357.09;;;16.98;63.71
73024;BME280;61199;47.526;8.538;2023-05-07T04:56:06;96364.44;;;17.11;62.72
73024;BME280;61199;47.526;8.538;2023-05-07T04:58:32;96366.44;;;17.09;63.03
73024;BME280;61199;47.526;8.538;2023-05-07T05:00:59;96371.22;;;17.13;62.85
73024;BME280;61199;47.526;8.538;2023-05-07T05:03:26;96369.44;;;17.06;63.80
73024;BME280;61199;47.526;8.538;2023-05-07T05:05:53;96367.16;;;17.03;63.73
73024;BME280;61199;47.526;8.538;2023-05-07T05:08:19;96369.97;;;17.01;63.83
73024;BME280;61199;47.526;8.538;2023-05-07T05:10:45;96375.44;;;17.00;64.07
73024;BME280;61199;47.526;8.538;2023-05-07T05:13:12;96375.09;;;17.03;63.93
73024;BME280;61199;47.526;8.538;2023-05-07T05:15:39;96382.69;;;17.06;63.20
73024;BME280;61199;47.526;8.538;2023-05-07T05:18:05;96376.56;;;17.05;63.70
73024;BME280;61199;47.526;8.538;2023-05-07T05:20:32;96383.50;;;17.06;64.38
73024;BME280;61199;47.526;8.538;2023-05-07T05:22:58;96376.50;;;17.13;63.83
73024;BME280;61199;47.526;8.538;2023-05-07T05:25:25;96384.22;;;17.23;63.29
73024;BME280;61199;47.526;8.538;2023-05-07T05:27:51;96386.34;;;17.27;63.83
73024;BME280;61199;47.526;8.538;2023-05-07T05:30:17;96390.31;;;17.23;63.83
73024;BME280;61199;47.526;8.538;2023-05-07T05:32:44;96395.63;;;17.23;63.46
73024;BME280;61199;47.526;8.538;2023-05-07T05:35:10;96400.00;;;17.16;64.00
73024;BME280;61199;47.526;8.538;2023-05-07T05:37:37;96394.03;;;17.14;64.36
73024;BME280;61199;47.526;8.538;2023-05-07T05:40:03;96392.63;;;17.04;64.71
73024;BME280;61199;47.526;8.538;2023-05-07T05:42:30;96394.75;;;17.08;65.02
73024;BME280;61199;47.526;8.538;2023-05-07T05:44:56;96393.31;;;16.98;65.33
73024;BME280;61199;47.526;8.538;2023-05-07T05:47:22;96391.78;;;17.03;65.13
73024;BME280;61199;47.526;8.538;2023-05-07T05:49:49;96396.41;;;17.09;65.10
73024;BME280;61199;47.526;8.538;2023-05-07T05:52:16;96395.56;;;17.09;64.77
73024;BME280;61199;47.526;8.538;2023-05-07T05:54:43;96400.13;;;16.92;65.86
73024;BME280;61199;47.526;8.538;2023-05-07T05:57:09;96407.72;;;16.95;65.63
73024;BME280;61199;47.526;8.538;2023-05-07T05:59:36;96411.66;;;16.99;65.35
73024;BME280;61199;47.526;8.538;2023-05-07T06:02:02;96417.78;;;17.00;65.43
73024;BME280;61199;47.526;8.538;2023-05-07T06:04:29;96412.16;;;17.03;65.74
73024;BME280;61199;47.526;8.538;2023-05-07T06:06:55;96411.28;;;17.10;65.87
73024;BME280;61199;47.526;8.538;2023-05-07T06:09:23;96416.53;;;17.18;65.11
73024;BME280;61199;47.526;8.538;2023-05-07T06:11:49;96427.16;;;17.10;64.99
73024;BME280;61199;47.526;8.538;2023-05-07T06:14:15;96426.28;;;16.87;65.47
73024;BME280;61199;47.526;8.538;2023-05-07T06:16:42;96430.72;;;16.95;65.74
73024;BME280;61199;47.526;8.538;2023-05-07T06:19:08;96436.09;;;17.09;65.35
73024;BME280;61199;47.526;8.538;2023-05-07T06:21:34;96443.00;;;17.18;65.40
73024;BME280;61199;47.526;8.538;2023-05-07T06:24:01;96442.69;;;17.13;65.92
73024;BME280;61199;47.526;8.538;2023-05-07T06:26:27;96443.88;;;16.72;67.11
73024;BME280;61199;47.526;8.538;2023-05-07T06:28:54;96446.97;;;16.13;68.52
73024;BME280;61199;47.526;8.538;2023-05-07T06:31:20;96446.03;;;15.66;71.48
73024;BME280;61199;47.526;8.538;2023-05-07T06:33:48;96449.66;;;15.89;70.97
73024;BME280;61199;47.526;8.538;2023-05-07T06:36:14;96453.25;;;16.12;70.14
73024;BME280;61199;47.526;8.538;2023-05-07T06:38:41;96460.88;;;16.07;70.68
73024;BME280;61199;47.526;8.538;2023-05-07T06:41:07;96455.91;;;16.20;69.91
73024;BME280;61199;47.526;8.538;2023-05-07T06:43:33;96455.03;;;16.52;69.03
73024;BME280;61199;47.526;8.538;2023-05-07T06:46:00;96452.13;;;16.77;67.96
73024;BME280;61199;47.526;8.538;2023-05-07T06:48:26;96452.19;;;17.00;67.40
73024;BME280;61199;47.526;8.538;2023-05-07T06:50:53;96447.97;;;17.13;66.65
73024;BME280;61199;47.526;8.538;2023-05-07T06:53:21;96444.41;;;17.29;65.95
73024;BME280;61199;47.526;8.538;2023-05-07T06:55:47;96443.38;;;17.38;65.66
73024;BME280;61199;47.526;8.538;2023-05-07T06:58:14;96436.50;;;17.51;65.29
73024;BME280;61199;47.526;8.538;2023-05-07T07:00:40;96445.34;;;17.66;64.70
73024;BME280;61199;47.526;8.538;2023-05-07T07:03:07;96440.69;;;17.68;64.86
73024;BME280;61199;47.526;8.538;2023-05-07T07:05:33;96446.56;;;17.78;63.96
73024;BME280;61199;47.526;8.538;2023-05-07T07:07:59;96441.41;;;17.85;64.06
73024;BME280;61199;47.526;8.538;2023-05-07T07:10:26;96445.22;;;17.82;63.45
73024;BME280;61199;47.526;8.538;2023-05-07T07:12:52;96443.06;;;17.63;63.59
73024;BME280;61199;47.526;8.538;2023-05-07T07:15:19;96438.34;;;17.51;63.75
73024;BME280;61199;47.526;8.538;2023-05-07T07:17:47;96438.63;;;17.78;63.59
73024;BME280;61199;47.526;8.538;2023-05-07T07:20:14;96434.47;;;17.98;63.07
73024;BME280;61199;47.526;8.538;2023-05-07T07:22:41;96431.03;;;18.12;63.43
73024;BME280;61199;47.526;8.538;2023-05-07T07:25:07;96427.59;;;18.26;63.17
73024;BME280;61199;47.526;8.538;2023-05-07T07:27:36;96425.19;;;18.16;61.81
73024;BME280;61199;47.526;8.538;2023-05-07T07:30:03;96416.34;;;17.87;62.64
73024;BME280;61199;47.526;8.538;2023-05-07T07:32:30;96416.94;;;18.11;62.32
73024;BME280;61199;47.526;8.538;2023-05-07T07:34:58;96419.28;;;18.29;61.74
73024;BME280;61199;47.526;8.538;2023-05-07T07:37:24;96423.75;;;18.43;61.55
73024;BME280;61199;47.526;8.538;2023-05-07T07:39:51;96418.44;;;18.57;60.71
73024;BME280;61199;47.526;8.538;2023-05-07T07:42:17;96421.47;;;18.69;60.35
73024;BME280;61199;47.526;8.538;2023-05-07T07:44:44;96429.44;;;18.69;60.55
73024;BME280;61199;47.526;8.538;2023-05-07T07:47:11;96431.75;;;18.72;60.47
73024;BME280;61199;47.526;8.538;2023-05-07T07:49:37;96433.31;;;18.15;61.40
73024;BME280;61199;47.526;8.538;2023-05-07T07:52:03;96437.25;;;18.19;62.13
73024;BME280;61199;47.526;8.538;2023-05-07T07:54:30;96448.09;;;18.32;61.42
73024;BME280;61199;47.526;8.538;2023-05-07T07:56:56;96450.72;;;17.95;61.00
73024;BME280;61199;47.526;8.538;2023-05-07T07:59:23;96444.44;;;17.74;63.21
73024;BME280;61199;47.526;8.538;2023-05-07T08:01:49;96446.22;;;17.81;63.09
73024;BME280;61199;47.526;8.538;2023-05-07T08:04:20;96441.19;;;17.86;62.21
73024;BME280;61199;47.526;8.538;2023-05-07T08:06:47;96448.06;;;17.95;62.71
73024;BME280;61199;47.526;8.538;2023-05-07T08:09:13;96447.31;;;18.23;61.28
73024;BME280;61199;47.526;8.538;2023-05-07T08:11:40;96449.84;;;18.54;59.71
73024;BME280;61199;47.526;8.538;2023-05-07T08:14:06;96445.34;;;18.69;59.68
73024;BME280;61199;47.526;8.538;2023-05-07T08:16:33;96440.88;;;18.69;59.70
73024;BME280;61199;47.526;8.538;2023-05-07T08:18:59;96446.38;;;18.68;59.87
73024;BME280;61199;47.526;8.538;2023-05-07T08:21:26;96457.28;;;18.58;61.00
73024;BME280;61199;47.526;8.538;2023-05-07T08:23:52;96447.56;;;18.51;62.45
73024;BME280;61199;47.526;8.538;2023-05-07T08:26:18;96455.25;;;18.46;63.06
73024;BME280;61199;47.526;8.538;2023-05-07T08:28:45;96452.13;;;18.71;62.36
73024;BME280;61199;47.526;8.538;2023-05-07T08:31:11;96448.00;;;18.69;62.51
73024;BME280;61199;47.526;8.538;2023-05-07T08:33:37;96445.81;;;18.87;61.92
73024;BME280;61199;47.526;8.538;2023-05-07T08:36:04;96453.97;;;18.85;61.50
73024;BME280;61199;47.526;8.538;2023-05-07T08:38:31;96456.81;;;18.55;61.84
73024;BME280;61199;47.526;8.538;2023-05-07T08:40:57;96447.28;;;18.46;62.61
73024;BME280;61199;47.526;8.538;2023-05-07T08:43:26;96451.97;;;18.58;62.32
73024;BME280;61199;47.526;8.538;2023-05-07T08:45:53;96457.44;;;18.57;62.34
73024;BME280;61199;47.526;8.538;2023-05-07T08:48:24;96445.66;;;18.59;62.58
73024;BME280;61199;47.526;8.538;2023-05-07T08:50:51;96449.47;;;18.57;63.26
73024;BME280;61199;47.526;8.538;2023-05-07T08:53:19;96448.56;;;18.79;62.09
73024;BME280;61199;47.526;8.538;2023-05-07T08:55:47;96460.38;;;18.76;61.71
73024;BME280;61199;47.526;8.538;2023-05-07T08:58:13;96450.41;;;18.64;61.25
73024;BME280;61199;47.526;8.538;2023-05-07T09:00:41;96453.41;;;18.90;61.68
73024;BME280;61199;47.526;8.538;2023-05-07T09:03:08;96448.19;;;18.96;60.96
73024;BME280;61199;47.526;8.538;2023-05-07T09:05:34;96446.97;;;19.13;60.90
73024;BME280;61199;47.526;8.538;2023-05-07T09:08:06;96444.66;;;19.10;60.92
73024;BME280;61199;47.526;8.538;2023-05-07T09:10:33;96449.91;;;19.04;61.72
73024;BME280;61199;47.526;8.538;2023-05-07T09:13:00;96435.25;;;19.08;61.75
73024;BME280;61199;47.526;8.538;2023-05-07T09:15:27;96436.53;;;19.26;61.62
73024;BME280;61199;47.526;8.538;2023-05-07T09:17:59;96436.91;;;19.09;61.56
73024;BME280;61199;47.526;8.538;2023-05-07T09:20:27;96440.03;;;19.12;61.88
73024;BME280;61199;47.526;8.538;2023-05-07T09:22:56;96432.50;;;19.51;60.95
73024;BME280;61199;47.526;8.538;2023-05-07T09:25:30;96427.13;;;19.66;60.12
73024;BME280;61199;47.526;8.538;2023-05-07T09:27:57;96432.28;;;19.53;60.46
73024;BME280;61199;47.526;8.538;2023-05-07T09:30:30;96427.53;;;19.63;60.26
73024;BME280;61199;47.526;8.538;2023-05-07T09:33:02;96430.16;;;19.84;59.69
73024;BME280;61199;47.526;8.538;2023-05-07T09:35:29;96429.94;;;19.85;59.78
73024;BME280;61199;47.526;8.538;2023-05-07T09:37:59;96428.50;;;20.04;59.06
73024;BME280;61199;47.526;8.538;2023-05-07T09:40:30;96423.81;;;20.27;58.79
73024;BME280;61199;47.526;8.538;2023-05-07T09:43:08;96422.22;;;20.39;58.10
73024;BME280;61199;47.526;8.538;2023-05-07T09:45:36;96420.06;;;20.00;58.91
73024;BME280;61199;47.526;8.538;2023-05-07T09:48:04;96422.91;;;19.99;59.20
73024;BME280;61199;47.526;8.538;2023-05-07T09:50:35;96427.75;;;20.10;58.95
73024;BME280;61199;47.526;8.538;2023-05-07T09:53:03;96419.06;;;20.22;58.57
73024;BME280;61199;47.526;8.538;2023-05-07T09:55:30;96422.22;;;20.39;58.06
73024;BME280;61199;47.526;8.538;2023-05-07T09:57:57;96410.50;;;20.67;57.61
73024;BME280;61199;47.526;8.538;2023-05-07T10:00:23;96415.19;;;20.93;57.15
73024;BME280;61199;47.526;8.538;2023-05-07T10:02:52;96418.34;;;20.75;56.15
73024;BME280;61199;47.526;8.538;2023-05-07T10:05:19;96414.63;;;20.70;55.41
73024;BME280;61199;47.526;8.538;2023-05-07T10:07:46;96410.63;;;20.53;56.44
73024;BME280;61199;47.526;8.538;2023-05-07T10:10:14;96414.88;;;20.75;56.24
73024;BME280;61199;47.526;8.538;2023-05-07T10:13:02;96407.03;;;20.67;56.84
73024;BME280;61199;47.526;8.538;2023-05-07T10:15:32;96400.94;;;20.73;56.67
73024;BME280;61199;47.526;8.538;2023-05-07T10:17:59;96393.50;;;20.62;56.94
73024;BME280;61199;47.526;8.538;2023-05-07T10:20:25;96398.69;;;20.76;56.42
73024;BME280;61199;47.526;8.538;2023-05-07T10:22:55;96396.41;;;20.73;56.84
73024;BME280;61199;47.526;8.538;2023-05-07T10:25:28;96400.31;;;21.11;55.83
73024;BME280;61199;47.526;8.538;2023-05-07T10:28:00;96393.56;;;21.21;56.09
73024;BME280;61199;47.526;8.538;2023-05-07T10:30:40;96391.94;;;21.20;56.04
73024;BME280;61199;47.526;8.538;2023-05-07T10:33:15;96387.84;;;21.24;55.74
73024;BME280;61199;47.526;8.538;2023-05-07T10:35:45;96386.81;;;21.25;55.55
73024;BME280;61199;47.526;8.538;2023-05-07T10:38:12;96383.88;;;21.01;54.69
73024;BME280;61199;47.526;8.538;2023-05-07T10:40:39;96385.50;;;20.96;55.61
73024;BME280;61199;47.526;8.538;2023-05-07T10:43:06;96385.78;;;21.26;55.51
73024;BME280;61199;47.526;8.538;2023-05-07T10:45:36;96385.94;;;21.06;55.72
73024;BME280;61199;47.526;8.538;2023-05-07T10:48:10;96382.22;;;21.00;55.76
73024;BME280;61199;47.526;8.538;2023-05-07T10:51:21;96374.06;;;21.02;55.30
73024;BME280;61199;47.526;8.538;2023-05-07T10:53:48;96376.09;;;21.00;55.40
73024;BME280;61199;47.526;8.538;2023-05-07T10:58:44;96371.56;;;21.00;56.09
73024;BME280;61199;47.526;8.538;2023-05-07T11:01:10;96370.13;;;20.98;56.48
73024;BME280;61199;47.526;8.538;2023-05-07T11:04:14;96368.75;;;21.08;55.86
73024;BME280;61199;47.526;8.538;2023-05-07T11:06:41;96360.34;;;21.17;55.48
73024;BME280;61199;47.526;8.538;2023-05-07T11:09:07;96369.25;;;21.50;55.17
73024;BME280;61199;47.526;8.538;2023-05-07T11:11:50;96371.28;;;21.42;55.28
73024;BME280;61199;47.526;8.538;2023-05-07T11:14:44;96365.47;;;21.13;56.13
73024;BME280;61199;47.526;8.538;2023-05-07T11:17:11;96374.44;;;20.99;56.56
73024;BME280;61199;47.526;8.538;2023-05-07T11:25:00;96383.84;;;20.88;57.50
73024;BME280;61199;47.526;8.538;2023-05-07T11:27:27;96381.72;;;20.84;57.30
73024;BME280;61199;47.526;8.538;2023-05-07T11:29:53;96375.44;;;20.91;56.87
73024;BME280;61199;47.526;8.538;2023-05-07T11:32:27;96379.31;;;20.89;56.89
73024;BME280;61199;47.526;8.538;2023-05-07T11:34:57;96376.34;;;20.71;57.55
73024;BME280;61199;47.526;8.538;2023-05-07T11:37:25;96374.69;;;20.70;57.73
73024;BME280;61199;47.526;8.538;2023-05-07T11:40:06;96373.84;;;20.63;57.82
73024;BME280;61199;47.526;8.538;2023-05-07T11:42:35;96375.28;;;20.65;57.53
73024;BME280;61199;47.526;8.538;2023-05-07T11:45:05;96377.66;;;20.88;57.06
73024;BME280;61199;47.526;8.538;2023-05-07T11:47:33;96373.19;;;20.95;56.01
73024;BME280;61199;47.526;8.538;2023-05-07T11:50:07;96364.59;;;20.99;55.65
73024;BME280;61199;47.526;8.538;2023-05-07T11:52:34;96372.50;;;21.33;54.88
73024;BME280;61199;47.526;8.538;2023-05-07T11:55:02;96364.75;;;21.51;54.26
73024;BME280;61199;47.526;8.538;2023-05-07T11:57:30;96367.41;;;21.57;53.94
73024;BME280;61199;47.526;8.538;2023-05-07T11:59:57;96361.34;;;21.10;54.56
73024;BME280;61199;47.526;8.538;2023-05-07T12:02:24;96367.38;;;21.44;54.18
73024;BME280;61199;47.526;8.538;2023-05-07T12:04:52;96362.66;;;21.40;53.44
73024;BME280;61199;47.526;8.538;2023-05-07T12:07:18;96367.19;;;21.39;53.27
73024;BME280;61199;47.526;8.538;2023-05-07T12:09:45;96359.25;;;21.78;53.22
73024;BME280;61199;47.526;8.538;2023-05-07T12:12:12;96364.38;;;21.73;52.19
73024;BME280;61199;47.526;8.538;2023-05-07T12:14:44;96360.28;;;21.77;52.28
73024;BME280;61199;47.526;8.538;2023-05-07T12:17:12;96357.38;;;21.66;52.13
73024;BME280;61199;47.526;8.538;2023-05-07T12:19:39;96343.25;;;21.72;52.72
73024;BME280;61199;47.526;8.538;2023-05-07T12:22:09;96348.75;;;21.77;52.27
73024;BME280;61199;47.526;8.538;2023-05-07T12:24:49;96346.31;;;21.82;52.32
73024;BME280;61199;47.526;8.538;2023-05-07T12:27:17;96345.91;;;22.04;52.34
73024;BME280;61199;47.526;8.538;2023-05-07T12:29:47;96348.34;;;22.32;51.79
73024;BME280;61199;47.526;8.538;2023-05-07T12:32:15;96345.44;;;22.27;52.31
73024;BME280;61199;47.526;8.538;2023-05-07T12:34:43;96344.59;;;22.52;51.69
73024;BME280;61199;47.526;8.538;2023-05-07T12:37:11;96346.59;;;22.63;51.56
73024;BME280;61199;47.526;8.538;2023-05-07T12:39:44;96345.41;;;22.40;51.63
73024;BME280;61199;47.526;8.538;2023-05-07T12:42:19;96347.63;;;22.62;51.02
73024;BME280;61199;47.526;8.538;2023-05-07T12:44:49;96345.94;;;22.81;50.96
73024;BME280;61199;47.526;8.538;2023-05-07T12:47:16;96344.19;;;22.55;52.18
73024;BME280;61199;47.526;8.538;2023-05-07T12:49:43;96346.91;;;22.29;53.83
73024;BME280;61199;47.526;8.538;2023-05-07T12:52:12;96357.19;;;22.19;54.16
73024;BME280;61199;47.526;8.538;2023-05-07T12:54:39;96355.94;;;22.09;54.77
73024;BME280;61199;47.526;8.538;2023-05-07T12:57:07;96359.44;;;21.90;55.93
73024;BME280;61199;47.526;8.538;2023-05-07T12:59:36;96355.75;;;21.97;56.58
73024;BME280;61199;47.526;8.538;2023-05-07T13:02:04;96348.75;;;22.03;57.21
73024;BME280;61199;47.526;8.538;2023-05-07T13:04:31;96361.91;;;22.11;56.98
73024;BME280;61199;47.526;8.538;2023-05-07T13:06:58;96353.25;;;22.28;55.78
73024;BME280;61199;47.526;8.538;2023-05-07T13:09:24;96370.13;;;22.16;55.30
73024;BME280;61199;47.526;8.538;2023-05-07T13:11:50;96366.84;;;21.94;56.25